createdAt,value
2022-09-03T00:01:32.330Z,101334.59
2022-09-03T00:04:06.827Z,101333.63
2022-09-03T00:06:42.653Z,101332.09
2022-09-03T00:09:16.996Z,101331.22
2022-09-03T00:12:05.905Z,101328.00
2022-09-03T00:14:40.546Z,101293.69
2022-09-03T00:17:13.494Z,101295.31
2022-09-03T00:19:47.216Z,101287.44
2022-09-03T00:22:22.125Z,101278.69
2022-09-03T00:24:52.343Z,101267.72
2022-09-03T00:27:25.545Z,101273.00
2022-09-03T00:29:58.449Z,101262.53
2022-09-03T00:32:32.252Z,101253.50
2022-09-03T00:35:05.562Z,101241.22
2022-09-03T00:37:38.219Z,101232.38
2022-09-03T00:40:13.997Z,101199.63
2022-09-03T00:42:47.822Z,101190.22
2022-09-03T00:45:24.165Z,101188.91
2022-09-03T00:48:10.630Z,101162.66
2022-09-03T00:50:49.301Z,101146.28
2022-09-03T00:53:28.189Z,101130.22
2022-09-03T00:56:02.919Z,101124.88
2022-09-03T00:58:41.245Z,101127.28
2022-09-03T01:01:24.269Z,101131.41
2022-09-03T01:04:01.046Z,101116.78
2022-09-03T01:06:36.112Z,101129.81
2022-09-03T01:09:22.356Z,101125.56
2022-09-03T01:11:59.796Z,101125.66
2022-09-03T01:14:41.745Z,101140.97
2022-09-03T01:17:17.221Z,101140.03
2022-09-03T01:20:03.350Z,101140.88
2022-09-03T01:22:52.666Z,101130.38
2022-09-03T01:25:44.557Z,101137.22
2022-09-03T01:28:24.473Z,101122.59
2022-09-03T01:30:58.731Z,101124.56
2022-09-03T01:33:34.323Z,101134.94
2022-09-03T01:36:10.225Z,101137.72
2022-09-03T01:38:45.385Z,101136.81
2022-09-03T01:41:35.337Z,101141.84
2022-09-03T01:44:13.398Z,101134.34
2022-09-03T01:46:45.851Z,101144.59
2022-09-03T01:49:23.883Z,101151.31
2022-09-03T01:51:57.646Z,101152.94
2022-09-03T01:54:43.114Z,101150.13
2022-09-03T01:57:38.689Z,101145.78
2022-09-03T02:00:15.081Z,101156.63
2022-09-03T02:02:47.436Z,101154.13
2022-09-03T02:05:20.570Z,101153.22
2022-09-03T02:07:59.200Z,101152.22
2022-09-03T02:10:32.357Z,101151.31
2022-09-03T02:13:08.737Z,101158.13
2022-09-03T02:15:43.495Z,101158.78
2022-09-03T02:18:18.183Z,101146.69
2022-09-03T02:20:48.230Z,101150.88
2022-09-03T02:23:17.953Z,101160.25
2022-09-03T02:25:57.617Z,101153.25
2022-09-03T02:28:27.377Z,101150.44
2022-09-03T02:30:59.599Z,101143.50
2022-09-03T02:33:29.270Z,101142.66
2022-09-03T02:35:58.758Z,101140.59
2022-09-03T02:38:29.457Z,101142.94
2022-09-03T02:40:58.913Z,101139.28
2022-09-03T02:43:32.921Z,101133.34
2022-09-03T02:46:07.097Z,101132.38
2022-09-03T02:48:36.898Z,101119.84
2022-09-03T02:51:13.830Z,101134.31
2022-09-03T02:53:44.305Z,101134.16
2022-09-03T02:56:13.936Z,101136.19
2022-09-03T02:58:43.675Z,101139.50
2022-09-03T03:01:21.760Z,101147.66
2022-09-03T03:03:54.608Z,101139.66
2022-09-03T03:06:24.443Z,101128.56
2022-09-03T03:08:57.129Z,101130.22
2022-09-03T03:11:27.339Z,101120.63
2022-09-03T03:13:56.842Z,101132.59
2022-09-03T03:16:28.910Z,101130.66
2022-09-03T03:18:58.981Z,101116.75
2022-09-03T03:21:28.828Z,101122.81
2022-09-03T03:23:58.310Z,101119.06
2022-09-03T03:26:27.813Z,101117.28
2022-09-03T03:29:00.651Z,101109.03
2022-09-03T03:31:33.578Z,101109.28
2022-09-03T03:34:04.984Z,101128.59
2022-09-03T03:36:36.250Z,101131.03
2022-09-03T03:39:06.406Z,101123.88
2022-09-03T03:41:38.082Z,101115.41
2022-09-03T03:44:09.634Z,101128.19
2022-09-03T03:46:43.872Z,101128.19
2022-09-03T03:49:14.002Z,101134.13
2022-09-03T03:51:43.550Z,101132.25
2022-09-03T03:54:13.042Z,101136.53
2022-09-03T03:56:55.646Z,101138.25
2022-09-03T03:59:25.465Z,101133.75
2022-09-03T04:01:57.636Z,101133.75
2022-09-03T04:04:27.192Z,101141.59
2022-09-03T04:06:56.654Z,101129.00
2022-09-03T04:09:26.158Z,101129.06
2022-09-03T04:11:57.883Z,101158.31
2022-09-03T04:14:27.523Z,101156.47
2022-09-03T04:16:59.811Z,101168.59
2022-09-03T04:19:30.285Z,101172.50
2022-09-03T04:22:00.254Z,101178.09
2022-09-03T04:24:30.057Z,101171.03
2022-09-03T04:26:59.561Z,101166.69
2022-09-03T04:29:31.362Z,101167.75
2022-09-03T04:32:16.032Z,101172.28
2022-09-03T04:34:45.536Z,101174.25
2022-09-03T04:37:16.542Z,101183.53
2022-09-03T04:39:46.113Z,101192.56
2022-09-03T04:42:15.653Z,101179.38
2022-09-03T04:44:45.139Z,101174.59
2022-09-03T04:47:17.938Z,101185.88
2022-09-03T04:49:47.450Z,101187.19
2022-09-03T04:52:17.149Z,101205.75
2022-09-03T04:54:46.597Z,101208.91
2022-09-03T04:57:16.117Z,101209.50
2022-09-03T04:59:45.665Z,101218.06
2022-09-03T05:02:17.862Z,101230.22
2022-09-03T05:04:47.370Z,101229.19
2022-09-03T05:07:16.922Z,101235.88
2022-09-03T05:09:49.986Z,101211.59
2022-09-03T05:12:20.831Z,101250.16
2022-09-03T05:14:50.318Z,101285.09
2022-09-03T05:17:22.352Z,101292.41
2022-09-03T05:19:51.843Z,101298.81
2022-09-03T05:22:21.496Z,101304.34
2022-09-03T05:24:51.331Z,101286.69
2022-09-03T05:27:20.878Z,101284.41
2022-09-03T05:29:50.380Z,101296.34
2022-09-03T05:32:22.579Z,101302.00
2022-09-03T05:34:52.086Z,101319.00
2022-09-03T05:37:23.379Z,101317.19
2022-09-03T05:39:53.955Z,101319.63
2022-09-03T05:42:23.447Z,101326.47
2022-09-03T05:44:53.027Z,101329.84
2022-09-03T05:47:25.118Z,101323.50
2022-09-03T05:49:54.722Z,101331.44
2022-09-03T05:52:24.455Z,101323.53
2022-09-03T05:54:53.898Z,101320.28
2022-09-03T05:57:23.396Z,101327.66
2022-09-03T05:59:53.202Z,101325.56
2022-09-03T06:02:25.360Z,101330.28
2022-09-03T06:04:56.075Z,101327.66
2022-09-03T06:07:25.552Z,101318.09
2022-09-03T06:09:55.117Z,101329.28
2022-09-03T06:12:24.722Z,101320.75
2022-09-03T06:14:54.198Z,101322.53
2022-09-03T06:17:28.373Z,101331.38
2022-09-03T06:19:57.809Z,101340.13
2022-09-03T06:22:30.118Z,101336.19
2022-09-03T06:24:59.685Z,101342.28
2022-09-03T06:27:29.193Z,101337.16
2022-09-03T06:29:59.596Z,101336.56
2022-09-03T06:32:31.681Z,101333.22
2022-09-03T06:35:01.181Z,101330.84
2022-09-03T06:37:30.668Z,101341.38
2022-09-03T06:40:00.375Z,101338.06
2022-09-03T06:42:30.033Z,101348.72
2022-09-03T06:44:59.517Z,101354.97
2022-09-03T06:47:31.954Z,101350.84
2022-09-03T06:50:02.214Z,101355.41
2022-09-03T06:52:31.839Z,101358.28
2022-09-03T06:55:01.311Z,101358.44
2022-09-03T06:57:30.829Z,101360.16
2022-09-03T07:00:00.410Z,101359.34
2022-09-03T07:02:33.558Z,101367.28
2022-09-03T07:05:03.155Z,101365.06
2022-09-03T07:07:34.100Z,101362.75
2022-09-03T07:10:03.702Z,101367.41
2022-09-03T07:12:37.785Z,101365.84
2022-09-03T07:15:07.905Z,101367.78
2022-09-03T07:17:40.181Z,101380.19
2022-09-03T07:20:10.508Z,101381.44
2022-09-03T07:22:40.013Z,101389.28
2022-09-03T07:25:10.445Z,101395.56
2022-09-03T07:27:40.058Z,101390.59
2022-09-03T07:30:11.334Z,101399.50
2022-09-03T07:32:43.382Z,101398.06
2022-09-03T07:35:13.051Z,101394.13
2022-09-03T07:37:44.369Z,101397.75
2022-09-03T07:40:15.580Z,101406.47
2022-09-03T07:42:45.050Z,101406.88
2022-09-03T07:45:14.521Z,101406.38
2022-09-03T07:47:52.349Z,101418.03
2022-09-03T07:50:21.946Z,101407.84
2022-09-03T07:52:51.617Z,101406.34
2022-09-03T07:55:21.069Z,101406.81
2022-09-03T07:57:50.578Z,101406.41
2022-09-03T08:00:20.356Z,101406.50
2022-09-03T08:02:54.857Z,101406.00
2022-09-03T08:05:25.734Z,101410.69
2022-09-03T08:07:55.295Z,101417.72
2022-09-03T08:10:25.734Z,101408.50
2022-09-03T08:12:55.346Z,101421.59
2022-09-03T08:15:24.890Z,101423.56
2022-09-03T08:18:03.450Z,101421.38
2022-09-03T08:20:35.375Z,101424.97
2022-09-03T08:23:05.526Z,101420.81
2022-09-03T08:25:35.323Z,101417.22
2022-09-03T08:28:04.921Z,101418.06
2022-09-03T08:30:34.888Z,101416.63
2022-09-03T08:33:08.566Z,101414.25
2022-09-03T08:35:38.312Z,101416.97
2022-09-03T08:38:10.859Z,101413.94
2022-09-03T08:40:42.175Z,101408.97
2022-09-03T08:43:17.526Z,101422.25
2022-09-03T08:45:47.359Z,101415.59
2022-09-03T08:48:25.914Z,101412.47
2022-09-03T08:51:00.039Z,101413.44
2022-09-03T08:53:34.770Z,101412.09
2022-09-03T08:56:07.468Z,101408.13
2022-09-03T08:58:38.643Z,101404.94
2022-09-03T09:01:15.817Z,101410.94
2022-09-03T09:03:54.427Z,101414.56
2022-09-03T09:06:26.954Z,101404.97
2022-09-03T09:09:10.517Z,101412.59
2022-09-03T09:11:53.703Z,101402.75
2022-09-03T09:14:27.557Z,101407.88
2022-09-03T09:17:02.619Z,101396.19
2022-09-03T09:19:42.426Z,101402.22
2022-09-03T09:22:14.100Z,101406.47
2022-09-03T09:24:45.532Z,101400.72
2022-09-03T09:27:17.484Z,101406.50
2022-09-03T09:29:52.340Z,101401.25
2022-09-03T09:32:22.877Z,101402.09
2022-09-03T09:34:55.030Z,101402.88
2022-09-03T09:37:24.633Z,101398.03
2022-09-03T09:39:59.440Z,101398.50
2022-09-03T09:42:31.102Z,101390.22
2022-09-03T09:45:00.685Z,101390.38
2022-09-03T09:47:32.414Z,101384.19
2022-09-03T09:50:05.717Z,101390.22
2022-09-03T09:52:45.854Z,101384.47
2022-09-03T09:55:23.946Z,101383.88
2022-09-03T09:57:56.238Z,101383.44
2022-09-03T10:00:26.462Z,101365.44
2022-09-03T10:02:57.089Z,101370.69
2022-09-03T10:05:30.963Z,101374.31
2022-09-03T10:08:02.104Z,101366.63
2022-09-03T10:10:37.806Z,101367.00
2022-09-03T10:13:09.977Z,101367.28
2022-09-03T10:15:44.290Z,101359.63
2022-09-03T10:18:18.371Z,101361.34
2022-09-03T10:20:56.164Z,101348.00
2022-09-03T10:23:28.389Z,101348.84
2022-09-03T10:26:07.359Z,101344.31
2022-09-03T10:28:41.465Z,101345.00
2022-09-03T10:31:29.142Z,101349.91
2022-09-03T10:34:03.674Z,101347.91
2022-09-03T10:36:40.619Z,101334.91
2022-09-03T10:39:17.828Z,101336.34
2022-09-03T10:41:59.571Z,101340.00
2022-09-03T10:44:48.368Z,101343.41
2022-09-03T10:47:29.609Z,101328.66
2022-09-03T10:50:03.184Z,101328.88
2022-09-03T10:52:42.650Z,101316.91
2022-09-03T10:55:23.214Z,101325.03
2022-09-03T10:58:12.375Z,101318.72
2022-09-03T11:00:45.802Z,101322.25
2022-09-03T11:03:31.233Z,101315.44
2022-09-03T11:06:06.347Z,101311.72
2022-09-03T11:08:43.138Z,101324.53
2022-09-03T11:11:16.424Z,101328.78
2022-09-03T11:13:50.310Z,101315.78
2022-09-03T11:16:25.719Z,101321.03
2022-09-03T11:18:59.065Z,101315.69
2022-09-03T11:21:30.193Z,101319.97
2022-09-03T11:24:08.837Z,101319.16
2022-09-03T11:26:39.676Z,101320.03
2022-09-03T11:29:14.559Z,101317.25
2022-09-03T11:31:53.014Z,101312.88
2022-09-03T11:34:31.983Z,101308.66
2022-09-03T11:37:10.678Z,101313.13
2022-09-03T11:39:43.044Z,101306.03
2022-09-03T11:42:14.546Z,101307.13
2022-09-03T11:44:51.733Z,101316.03
2022-09-03T11:47:26.001Z,101311.34
2022-09-03T11:50:10.769Z,101305.34
2022-09-03T11:52:41.054Z,101298.53
2022-09-03T11:55:13.203Z,101288.13
2022-09-03T11:57:45.569Z,101294.13
2022-09-03T12:00:18.670Z,101300.97
2022-09-03T12:02:50.009Z,101293.06
2022-09-03T12:05:29.341Z,101294.00
2022-09-03T12:08:21.516Z,101300.03
2022-09-03T12:11:01.742Z,101295.78
2022-09-03T12:13:41.011Z,101289.16
2022-09-03T12:16:28.204Z,101274.56
2022-09-03T12:18:59.518Z,101274.56
2022-09-03T12:21:29.206Z,101279.78
2022-09-03T12:24:01.133Z,101282.50
2022-09-03T12:26:34.613Z,101267.81
2022-09-03T12:29:05.830Z,101267.84
2022-09-03T12:31:48.525Z,101271.38
2022-09-03T12:34:19.673Z,101266.16
2022-09-03T12:36:51.673Z,101263.50
2022-09-03T12:40:04.460Z,101251.19
2022-09-03T12:42:21.886Z,101267.03
2022-09-03T12:44:51.333Z,101260.88
2022-09-03T12:47:38.398Z,101253.00
2022-09-03T12:50:11.574Z,101251.22
2022-09-03T12:52:42.914Z,101255.56
2022-09-03T12:55:21.897Z,101253.75
2022-09-03T12:57:57.770Z,101245.72
2022-09-03T13:00:33.129Z,101249.06
2022-09-03T13:03:05.652Z,101241.25
2022-09-03T13:05:37.254Z,101235.09
2022-09-03T13:08:08.449Z,101241.13
2022-09-03T13:10:41.935Z,101234.88
2022-09-03T13:13:22.797Z,101234.78
2022-09-03T13:16:16.279Z,101232.78
2022-09-03T13:18:50.513Z,101232.50
2022-09-03T13:21:25.150Z,101231.97
2022-09-03T13:24:04.627Z,101231.97
2022-09-03T13:26:42.467Z,101238.88
2022-09-03T13:29:37.398Z,101227.34
2022-09-03T13:32:17.314Z,101224.69
2022-09-03T13:34:51.906Z,101232.09
2022-09-03T13:37:28.042Z,101227.16
2022-09-03T13:40:00.676Z,101219.72
2022-09-03T13:42:35.507Z,101226.97
2022-09-03T13:45:13.474Z,101221.72
2022-09-03T13:48:06.945Z,101221.22
2022-09-03T13:50:41.637Z,101225.66
2022-09-03T13:53:12.466Z,101235.78
2022-09-03T13:55:48.193Z,101233.19
2022-09-03T13:58:24.694Z,101233.28
2022-09-03T14:01:11.613Z,101228.78
2022-09-03T14:03:49.181Z,101223.88
2022-09-03T14:06:27.981Z,101231.78
2022-09-03T14:09:06.435Z,101222.03
2022-09-03T14:11:43.939Z,101222.97
2022-09-03T14:14:19.223Z,101228.25
2022-09-03T14:16:59.271Z,101223.06
2022-09-03T14:19:37.059Z,101224.94
2022-09-03T14:22:10.478Z,101229.34
2022-09-03T14:24:47.957Z,101236.38
2022-09-03T14:27:26.847Z,101215.31
2022-09-03T14:30:01.146Z,101228.44
2022-09-03T14:32:42.375Z,101220.56
2022-09-03T14:35:28.019Z,101206.53
2022-09-03T14:38:22.644Z,101217.06
2022-09-03T14:41:00.769Z,101218.81
2022-09-03T14:43:44.856Z,101216.19
2022-09-03T14:46:33.646Z,101220.56
2022-09-03T14:49:28.025Z,101220.53
2022-09-03T14:52:26.978Z,101218.81
2022-09-03T14:55:09.986Z,101223.16
2022-09-03T14:57:50.952Z,101214.41
2022-09-03T15:00:21.933Z,101215.28
2022-09-03T15:03:05.710Z,101211.75
2022-09-03T15:06:09.103Z,101212.59
2022-09-03T15:08:48.125Z,101215.19
2022-09-03T15:11:22.191Z,101214.34
2022-09-03T15:13:55.470Z,101212.53
2022-09-03T15:16:35.022Z,101215.16
2022-09-03T15:19:13.502Z,101216.06
2022-09-03T15:21:57.954Z,101208.13
2022-09-03T15:24:35.640Z,101216.84
2022-09-03T15:27:15.078Z,101213.41
2022-09-03T15:29:52.433Z,101211.66
2022-09-03T15:32:33.280Z,101208.16
2022-09-03T15:35:08.283Z,101206.38
2022-09-03T15:37:45.927Z,101197.63
2022-09-03T15:40:30.376Z,101214.16
2022-09-03T15:43:06.830Z,101216.75
2022-09-03T15:45:40.854Z,101221.06
2022-09-03T15:48:23.564Z,101225.41
2022-09-03T15:50:57.170Z,101227.22
2022-09-03T15:53:38.238Z,101225.44
2022-09-03T15:56:21.566Z,101218.38
2022-09-03T15:59:00.956Z,101221.00
2022-09-03T16:01:37.468Z,101213.97
2022-09-03T16:04:20.897Z,101224.44
2022-09-03T16:06:55.250Z,101220.84
2022-09-03T16:09:44.512Z,101226.09
2022-09-03T16:12:22.935Z,101220.88
2022-09-03T16:14:58.043Z,101228.69
2022-09-03T16:17:31.555Z,101230.44
2022-09-03T16:20:04.989Z,101240.88
2022-09-03T16:22:41.682Z,101243.44
2022-09-03T16:25:17.823Z,101240.69
2022-09-03T16:27:56.338Z,101242.41
2022-09-03T16:30:36.362Z,101239.69
2022-09-03T16:33:13.841Z,101241.44
2022-09-03T16:35:51.123Z,101242.25
2022-09-03T16:38:32.837Z,101241.38
2022-09-03T16:41:11.763Z,101238.75
2022-09-03T16:43:47.685Z,101242.22
2022-09-03T16:46:26.734Z,101243.09
2022-09-03T16:49:16.725Z,101231.66
2022-09-03T16:51:49.351Z,101242.13
2022-09-03T16:54:31.812Z,101242.94
2022-09-03T16:57:15.178Z,101250.75
2022-09-03T16:59:57.075Z,101242.91
2022-09-03T17:02:52.776Z,101243.66
2022-09-03T17:05:59.435Z,101251.41
2022-09-03T17:08:34.351Z,101242.59
2022-09-03T17:11:12.025Z,101248.69
2022-09-03T17:13:59.419Z,101252.16
2022-09-03T17:16:39.951Z,101245.97
2022-09-03T17:19:13.250Z,101250.28
2022-09-03T17:21:50.098Z,101244.97
2022-09-03T17:24:36.366Z,101248.50
2022-09-03T17:27:31.290Z,101255.41
2022-09-03T17:30:12.213Z,101259.59
2022-09-03T17:33:07.441Z,101249.88
2022-09-03T17:35:46.622Z,101249.00
2022-09-03T17:38:29.830Z,101261.16
2022-09-03T17:41:08.147Z,101263.72
2022-09-03T17:43:44.697Z,101265.38
2022-09-03T17:46:28.807Z,101267.97
2022-09-03T17:49:01.563Z,101274.03
2022-09-03T17:51:37.892Z,101280.06
2022-09-03T17:54:11.362Z,101278.13
2022-09-03T17:56:48.833Z,101284.09
2022-09-03T17:59:24.906Z,101290.28
2022-09-03T18:02:02.905Z,101290.09
2022-09-03T18:04:40.989Z,101289.00
2022-09-03T18:07:16.672Z,101298.47
2022-09-03T18:09:54.022Z,101301.94
2022-09-03T18:12:31.389Z,101306.28
2022-09-03T18:15:07.738Z,101307.03
2022-09-03T18:17:44.646Z,101307.78
2022-09-03T18:20:28.318Z,101316.44
2022-09-03T18:23:15.677Z,101324.25
2022-09-03T18:25:59.776Z,101321.44
2022-09-03T18:28:48.007Z,101329.84
2022-09-03T18:31:31.358Z,101328.94
2022-09-03T18:34:15.987Z,101346.06
2022-09-03T18:36:58.638Z,101340.66
2022-09-03T18:39:42.697Z,101340.59
2022-09-03T18:42:30.278Z,101341.31
2022-09-03T18:45:22.027Z,101351.59
2022-09-03T18:48:20.255Z,101358.34
2022-09-03T18:51:09.286Z,101360.81
2022-09-03T18:53:55.563Z,101366.84
2022-09-03T18:56:42.465Z,101368.38
2022-09-03T18:59:33.139Z,101360.31
2022-09-03T19:02:19.857Z,101375.81
2022-09-03T19:05:21.855Z,101373.06
2022-09-03T19:08:11.686Z,101366.66
2022-09-03T19:10:59.328Z,101370.66
2022-09-03T19:13:47.873Z,101377.50
2022-09-03T19:16:37.158Z,101383.31
2022-09-03T19:19:49.747Z,101378.75
2022-09-03T19:22:37.029Z,101379.47
2022-09-03T19:25:25.866Z,101384.41
2022-09-03T19:28:21.674Z,101381.63
2022-09-03T19:31:12.690Z,101385.88
2022-09-03T19:34:01.795Z,101375.13
2022-09-03T19:36:52.043Z,101383.78
2022-09-03T19:39:46.615Z,101386.16
2022-09-03T19:42:38.240Z,101392.56
2022-09-03T19:45:27.746Z,101393.31
2022-09-03T19:48:17.251Z,101388.03
2022-09-03T19:51:08.271Z,101391.50
2022-09-03T19:53:50.320Z,101396.56
2022-09-03T19:56:38.210Z,101398.16
2022-09-03T19:59:27.911Z,101389.25
2022-09-03T20:02:09.855Z,101395.13
2022-09-03T20:04:55.662Z,101407.84
2022-09-03T20:07:38.049Z,101411.00
2022-09-03T20:10:25.189Z,101402.16
2022-09-03T20:13:04.434Z,101405.50
2022-09-03T20:15:45.921Z,101411.59
2022-09-03T20:18:20.114Z,101411.59
2022-09-03T20:20:53.470Z,101421.22
2022-09-03T20:23:25.342Z,101417.66
2022-09-03T20:26:10.415Z,101425.22
2022-09-03T20:28:53.699Z,101431.22
2022-09-03T20:31:28.651Z,101436.97
2022-09-03T20:34:11.253Z,101434.25
2022-09-03T20:36:49.759Z,101438.00
2022-09-03T20:39:32.739Z,101436.66
2022-09-03T20:42:14.550Z,101436.69
2022-09-03T20:45:06.583Z,101432.88
2022-09-03T20:48:00.400Z,101437.16
2022-09-03T20:50:47.823Z,101438.31
2022-09-03T20:53:38.214Z,101437.88
2022-09-03T20:56:13.569Z,101448.63
2022-09-03T20:58:48.533Z,101450.19
2022-09-03T21:01:23.252Z,101459.56
2022-09-03T21:04:04.721Z,101455.25
2022-09-03T21:06:37.649Z,101460.44
2022-09-03T21:09:20.518Z,101462.66
2022-09-03T21:11:56.255Z,101464.34
2022-09-03T21:14:33.585Z,101472.97
2022-09-03T21:17:18.779Z,101463.22
2022-09-03T21:20:03.550Z,101466.63
2022-09-03T21:22:38.223Z,101473.59
2022-09-03T21:25:11.987Z,101468.19
2022-09-03T21:27:45.336Z,101462.78
2022-09-03T21:30:17.562Z,101459.19
2022-09-03T21:32:50.487Z,101462.44
2022-09-03T21:35:28.836Z,101467.81
2022-09-03T21:38:01.447Z,101469.59
2022-09-03T21:40:33.810Z,101464.16
2022-09-03T21:43:09.739Z,101461.50
2022-09-03T21:45:43.826Z,101470.13
2022-09-03T21:48:18.296Z,101463.19
2022-09-03T21:50:53.869Z,101465.00
2022-09-03T21:53:30.054Z,101456.31
2022-09-03T21:56:13.609Z,101461.44
2022-09-03T21:58:54.266Z,101459.59
2022-09-03T22:01:27.731Z,101451.53
2022-09-03T22:03:57.219Z,101448.09
2022-09-03T22:06:32.241Z,101453.38
2022-09-03T22:09:06.319Z,101450.53
2022-09-03T22:11:39.241Z,101449.81
2022-09-03T22:14:12.255Z,101436.72
2022-09-03T22:16:46.473Z,101445.56
2022-09-03T22:19:16.014Z,101442.41
2022-09-03T22:21:59.876Z,101437.00
2022-09-03T22:24:37.767Z,101433.38
2022-09-03T22:27:14.383Z,101428.28
2022-09-03T22:29:49.411Z,101433.38
2022-09-03T22:32:36.269Z,101427.16
2022-09-03T22:35:16.380Z,101425.38
2022-09-03T22:37:58.734Z,101421.03
2022-09-03T22:40:29.635Z,101416.50
2022-09-03T22:43:11.585Z,101426.13
2022-09-03T22:46:02.702Z,101416.81
2022-09-03T22:48:42.330Z,101408.66
2022-09-03T22:51:12.732Z,101408.50
2022-09-03T22:53:56.283Z,101405.78
2022-09-03T22:56:26.019Z,101408.44
2022-09-03T22:58:59.330Z,101397.97
2022-09-03T23:01:31.565Z,101395.94
2022-09-03T23:04:07.131Z,101394.63
2022-09-03T23:06:39.095Z,101390.75
2022-09-03T23:09:13.317Z,101396.16
2022-09-03T23:11:45.081Z,101395.13
2022-09-03T23:14:16.468Z,101395.13
2022-09-03T23:16:51.268Z,101393.56
2022-09-03T23:21:57.100Z,101389.81
2022-09-03T23:24:31.950Z,101393.47
2022-09-03T23:27:03.314Z,101388.13
2022-09-03T23:29:37.648Z,101378.38
2022-09-03T23:32:09.421Z,101383.47
2022-09-03T23:34:40.769Z,101379.16
2022-09-03T23:37:33.768Z,101369.44
2022-09-03T23:40:34.973Z,101374.28
2022-09-03T23:43:35.460Z,101370.13
2022-09-03T23:46:09.143Z,101375.47
2022-09-03T23:48:49.344Z,101366.72
2022-09-03T23:51:23.777Z,101370.91
2022-09-03T23:54:01.023Z,101370.69
2022-09-03T23:56:56.945Z,101368.16
2022-09-03T23:59:34.242Z,101368.44
